sensor_id;sensor_type;location;lat;lon;timestamp;P1;durP1;ratioP1;P2;durP2;ratioP2
42846;SDS011;28495;49.916;14.536;2022-08-14T00:04:50;6.75;;;5.28;;
42846;SDS011;28495;49.916;14.536;2022-08-14T00:10:12;6.57;;;4.78;;
42846;SDS011;28495;49.916;14.536;2022-08-14T00:15:55;6.43;;;5.43;;
42846;SDS011;28495;49.916;14.536;2022-08-14T00:21:18;6.57;;;5.53;;
42846;SDS011;28495;49.916;14.536;2022-08-14T00:26:47;9.98;;;6.35;;
42846;SDS011;28495;49.916;14.536;2022-08-14T00:32:13;6.90;;;5.43;;
42846;SDS011;28495;49.916;14.536;2022-08-14T00:37:54;8.00;;;6.13;;
42846;SDS011;28495;49.916;14.536;2022-08-14T00:43:15;7.82;;;5.57;;
42846;SDS011;28495;49.916;14.536;2022-08-14T00:48:36;7.15;;;5.70;;
42846;SDS011;28495;49.916;14.536;2022-08-14T00:54:01;6.97;;;4.82;;
42846;SDS011;28495;49.916;14.536;2022-08-14T00:59:36;6.18;;;5.47;;
42846;SDS011;28495;49.916;14.536;2022-08-14T01:04:57;7.05;;;5.13;;
42846;SDS011;28495;49.916;14.536;2022-08-14T01:10:21;7.78;;;5.20;;
42846;SDS011;28495;49.916;14.536;2022-08-14T01:15:53;6.68;;;5.22;;
42846;SDS011;28495;49.916;14.536;2022-08-14T01:21:23;7.68;;;5.50;;
42846;SDS011;28495;49.916;14.536;2022-08-14T01:27:06;6.07;;;4.93;;
42846;SDS011;28495;49.916;14.536;2022-08-14T01:32:26;6.28;;;4.60;;
42846;SDS011;28495;49.916;14.536;2022-08-14T01:37:49;5.93;;;4.55;;
42846;SDS011;28495;49.916;14.536;2022-08-14T01:43:16;6.88;;;4.68;;
42846;SDS011;28495;49.916;14.536;2022-08-14T01:48:41;5.32;;;4.40;;
42846;SDS011;28495;49.916;14.536;2022-08-14T01:54:07;6.30;;;4.15;;
42846;SDS011;28495;49.916;14.536;2022-08-14T01:59:33;5.82;;;4.55;;
42846;SDS011;28495;49.916;14.536;2022-08-14T02:04:57;6.15;;;4.53;;
42846;SDS011;28495;49.916;14.536;2022-08-14T02:10:20;6.68;;;5.40;;
42846;SDS011;28495;49.916;14.536;2022-08-14T02:15:46;5.72;;;4.68;;
42846;SDS011;28495;49.916;14.536;2022-08-14T02:21:09;6.30;;;5.03;;
42846;SDS011;28495;49.916;14.536;2022-08-14T02:26:33;5.85;;;4.57;;
42846;SDS011;28495;49.916;14.536;2022-08-14T02:32:15;5.20;;;4.45;;
42846;SDS011;28495;49.916;14.536;2022-08-14T02:37:53;7.45;;;5.75;;
42846;SDS011;28495;49.916;14.536;2022-08-14T02:43:13;6.43;;;4.85;;
42846;SDS011;28495;49.916;14.536;2022-08-14T02:48:38;7.72;;;5.15;;
42846;SDS011;28495;49.916;14.536;2022-08-14T02:54:21;7.80;;;5.82;;
42846;SDS011;28495;49.916;14.536;2022-08-14T02:59:42;7.18;;;5.40;;
42846;SDS011;28495;49.916;14.536;2022-08-14T03:05:04;7.95;;;5.55;;
42846;SDS011;28495;49.916;14.536;2022-08-14T03:10:25;8.70;;;6.90;;
42846;SDS011;28495;49.916;14.536;2022-08-14T03:15:52;11.18;;;6.72;;
42846;SDS011;28495;49.916;14.536;2022-08-14T03:21:18;6.20;;;4.93;;
42846;SDS011;28495;49.916;14.536;2022-08-14T03:26:41;9.50;;;6.78;;
42846;SDS011;28495;49.916;14.536;2022-08-14T03:32:04;7.80;;;6.60;;
42846;SDS011;28495;49.916;14.536;2022-08-14T03:37:27;7.30;;;6.10;;
42846;SDS011;28495;49.916;14.536;2022-08-14T03:43:08;8.95;;;6.63;;
42846;SDS011;28495;49.916;14.536;2022-08-14T03:48:30;9.70;;;7.15;;
42846;SDS011;28495;49.916;14.536;2022-08-14T03:54:00;9.55;;;7.15;;
42846;SDS011;28495;49.916;14.536;2022-08-14T03:59:23;12.15;;;7.30;;
42846;SDS011;28495;49.916;14.536;2022-08-14T04:04:47;13.50;;;7.68;;
42846;SDS011;28495;49.916;14.536;2022-08-14T04:10:09;9.75;;;6.60;;
42846;SDS011;28495;49.916;14.536;2022-08-14T04:15:33;9.70;;;6.88;;
42846;SDS011;28495;49.916;14.536;2022-08-14T04:21:14;8.52;;;6.35;;
42846;SDS011;28495;49.916;14.536;2022-08-14T04:26:36;10.25;;;8.15;;
42846;SDS011;28495;49.916;14.536;2022-08-14T04:32:03;10.07;;;7.47;;
42846;SDS011;28495;49.916;14.536;2022-08-14T04:37:47;12.35;;;7.93;;
42846;SDS011;28495;49.916;14.536;2022-08-14T04:43:46;9.40;;;7.72;;
42846;SDS011;28495;49.916;14.536;2022-08-14T04:49:10;9.38;;;7.35;;
42846;SDS011;28495;49.916;14.536;2022-08-14T04:54:34;9.27;;;7.10;;
42846;SDS011;28495;49.916;14.536;2022-08-14T04:59:54;11.10;;;7.80;;
42846;SDS011;28495;49.916;14.536;2022-08-14T05:05:16;10.77;;;8.05;;
42846;SDS011;28495;49.916;14.536;2022-08-14T05:10:40;9.63;;;7.63;;
42846;SDS011;28495;49.916;14.536;2022-08-14T05:16:03;10.38;;;8.05;;
42846;SDS011;28495;49.916;14.536;2022-08-14T05:21:28;11.68;;;7.57;;
42846;SDS011;28495;49.916;14.536;2022-08-14T05:27:09;11.38;;;7.82;;
42846;SDS011;28495;49.916;14.536;2022-08-14T05:32:30;9.80;;;7.07;;
42846;SDS011;28495;49.916;14.536;2022-08-14T05:37:51;9.70;;;8.07;;
42846;SDS011;28495;49.916;14.536;2022-08-14T05:43:14;10.30;;;7.55;;
42846;SDS011;28495;49.916;14.536;2022-08-14T05:48:35;10.57;;;6.57;;
42846;SDS011;28495;49.916;14.536;2022-08-14T05:54:02;12.70;;;7.82;;
42846;SDS011;28495;49.916;14.536;2022-08-14T05:59:43;9.18;;;6.90;;
42846;SDS011;28495;49.916;14.536;2022-08-14T06:05:04;8.20;;;7.35;;
42846;SDS011;28495;49.916;14.536;2022-08-14T06:10:28;10.27;;;8.00;;
42846;SDS011;28495;49.916;14.536;2022-08-14T06:15:50;9.18;;;7.68;;
42846;SDS011;28495;49.916;14.536;2022-08-14T06:21:12;12.07;;;8.68;;
42846;SDS011;28495;49.916;14.536;2022-08-14T06:26:36;10.55;;;8.48;;
42846;SDS011;28495;49.916;14.536;2022-08-14T06:32:00;11.48;;;8.07;;
42846;SDS011;28495;49.916;14.536;2022-08-14T06:37:55;13.63;;;8.60;;
42846;SDS011;28495;49.916;14.536;2022-08-14T06:43:18;12.57;;;8.32;;
42846;SDS011;28495;49.916;14.536;2022-08-14T06:48:41;10.45;;;7.32;;
42846;SDS011;28495;49.916;14.536;2022-08-14T06:54:02;9.32;;;7.45;;
42846;SDS011;28495;49.916;14.536;2022-08-14T06:59:22;11.60;;;8.90;;
42846;SDS011;28495;49.916;14.536;2022-08-14T07:04:43;13.10;;;8.63;;
42846;SDS011;28495;49.916;14.536;2022-08-14T07:10:25;12.93;;;9.45;;
42846;SDS011;28495;49.916;14.536;2022-08-14T07:15:46;9.60;;;7.72;;
42846;SDS011;28495;49.916;14.536;2022-08-14T07:21:14;11.20;;;8.20;;
42846;SDS011;28495;49.916;14.536;2022-08-14T07:26:35;11.95;;;7.75;;
42846;SDS011;28495;49.916;14.536;2022-08-14T07:32:00;8.23;;;6.95;;
42846;SDS011;28495;49.916;14.536;2022-08-14T07:37:20;12.57;;;7.43;;
42846;SDS011;28495;49.916;14.536;2022-08-14T07:42:41;8.90;;;7.07;;
42846;SDS011;28495;49.916;14.536;2022-08-14T07:48:05;7.93;;;6.93;;
42846;SDS011;28495;49.916;14.536;2022-08-14T07:53:34;9.27;;;7.40;;
42846;SDS011;28495;49.916;14.536;2022-08-14T07:58:59;10.23;;;7.82;;
42846;SDS011;28495;49.916;14.536;2022-08-14T08:04:23;8.10;;;6.05;;
42846;SDS011;28495;49.916;14.536;2022-08-14T08:09:47;7.60;;;6.00;;
42846;SDS011;28495;49.916;14.536;2022-08-14T08:15:12;10.93;;;6.78;;
42846;SDS011;28495;49.916;14.536;2022-08-14T08:20:36;8.45;;;5.57;;
42846;SDS011;28495;49.916;14.536;2022-08-14T08:26:11;6.43;;;4.30;;
42846;SDS011;28495;49.916;14.536;2022-08-14T08:31:33;6.18;;;5.03;;
42846;SDS011;28495;49.916;14.536;2022-08-14T08:37:12;7.25;;;5.93;;
42846;SDS011;28495;49.916;14.536;2022-08-14T08:42:33;6.75;;;5.32;;
42846;SDS011;28495;49.916;14.536;2022-08-14T08:48:04;7.22;;;6.25;;
42846;SDS011;28495;49.916;14.536;2022-08-14T08:53:40;9.05;;;6.40;;
42846;SDS011;28495;49.916;14.536;2022-08-14T08:59:01;6.50;;;5.78;;
42846;SDS011;28495;49.916;14.536;2022-08-14T09:04:23;8.48;;;6.13;;
42846;SDS011;28495;49.916;14.536;2022-08-14T09:09:45;7.22;;;6.20;;
42846;SDS011;28495;49.916;14.536;2022-08-14T09:15:18;9.32;;;6.88;;
42846;SDS011;28495;49.916;14.536;2022-08-14T09:20:45;18.67;;;7.97;;
42846;SDS011;28495;49.916;14.536;2022-08-14T09:26:08;8.07;;;5.93;;
42846;SDS011;28495;49.916;14.536;2022-08-14T09:31:44;8.73;;;6.30;;
42846;SDS011;28495;49.916;14.536;2022-08-14T09:43:28;8.85;;;6.25;;
42846;SDS011;28495;49.916;14.536;2022-08-14T09:49:30;10.15;;;6.82;;
42846;SDS011;28495;49.916;14.536;2022-08-14T09:55:00;7.72;;;6.22;;
42846;SDS011;28495;49.916;14.536;2022-08-14T10:00:31;7.72;;;5.53;;
42846;SDS011;28495;49.916;14.536;2022-08-14T10:06:11;7.75;;;6.65;;
42846;SDS011;28495;49.916;14.536;2022-08-14T10:11:39;10.07;;;5.70;;
42846;SDS011;28495;49.916;14.536;2022-08-14T10:17:05;8.23;;;6.50;;
42846;SDS011;28495;49.916;14.536;2022-08-14T10:22:28;6.63;;;5.72;;
42846;SDS011;28495;49.916;14.536;2022-08-14T10:28:10;9.95;;;5.60;;
42846;SDS011;28495;49.916;14.536;2022-08-14T10:34:07;6.70;;;5.40;;
42846;SDS011;28495;49.916;14.536;2022-08-14T10:39:33;5.93;;;4.93;;
42846;SDS011;28495;49.916;14.536;2022-08-14T10:44:56;7.38;;;5.10;;
42846;SDS011;28495;49.916;14.536;2022-08-14T10:50:27;7.72;;;5.28;;
42846;SDS011;28495;49.916;14.536;2022-08-14T10:55:56;8.98;;;4.75;;
42846;SDS011;28495;49.916;14.536;2022-08-14T11:01:28;5.80;;;4.75;;
42846;SDS011;28495;49.916;14.536;2022-08-14T11:06:57;8.73;;;5.28;;
42846;SDS011;28495;49.916;14.536;2022-08-14T11:12:18;14.45;;;5.22;;
42846;SDS011;28495;49.916;14.536;2022-08-14T11:17:59;6.10;;;5.05;;
42846;SDS011;28495;49.916;14.536;2022-08-14T11:23:24;4.40;;;3.97;;
42846;SDS011;28495;49.916;14.536;2022-08-14T11:28:58;7.10;;;4.78;;
42846;SDS011;28495;49.916;14.536;2022-08-14T11:34:22;7.35;;;5.35;;
42846;SDS011;28495;49.916;14.536;2022-08-14T11:39:52;12.55;;;6.80;;
42846;SDS011;28495;49.916;14.536;2022-08-14T11:45:13;6.45;;;4.90;;
42846;SDS011;28495;49.916;14.536;2022-08-14T11:50:37;7.43;;;5.43;;
42846;SDS011;28495;49.916;14.536;2022-08-14T11:56:00;5.78;;;4.30;;
42846;SDS011;28495;49.916;14.536;2022-08-14T12:01:27;5.30;;;4.70;;
42846;SDS011;28495;49.916;14.536;2022-08-14T12:06:52;5.05;;;4.55;;
42846;SDS011;28495;49.916;14.536;2022-08-14T12:12:16;5.57;;;5.03;;
42846;SDS011;28495;49.916;14.536;2022-08-14T12:17:55;4.88;;;4.10;;
42846;SDS011;28495;49.916;14.536;2022-08-14T12:23:19;5.53;;;4.35;;
42846;SDS011;28495;49.916;14.536;2022-08-14T12:28:42;7.28;;;4.55;;
42846;SDS011;28495;49.916;14.536;2022-08-14T12:34:19;6.35;;;4.97;;
42846;SDS011;28495;49.916;14.536;2022-08-14T12:39:43;7.07;;;5.18;;
42846;SDS011;28495;49.916;14.536;2022-08-14T12:45:06;6.78;;;4.45;;
42846;SDS011;28495;49.916;14.536;2022-08-14T12:50:36;6.50;;;4.80;;
42846;SDS011;28495;49.916;14.536;2022-08-14T12:56:01;5.45;;;4.55;;
42846;SDS011;28495;49.916;14.536;2022-08-14T13:01:46;7.60;;;3.90;;
42846;SDS011;28495;49.916;14.536;2022-08-14T13:07:26;5.70;;;4.13;;
42846;SDS011;28495;49.916;14.536;2022-08-14T13:12:55;4.55;;;3.95;;
42846;SDS011;28495;49.916;14.536;2022-08-14T13:18:35;5.13;;;4.00;;
42846;SDS011;28495;49.916;14.536;2022-08-14T13:24:06;5.55;;;4.35;;
42846;SDS011;28495;49.916;14.536;2022-08-14T13:29:35;5.00;;;4.23;;
42846;SDS011;28495;49.916;14.536;2022-08-14T13:35:06;5.95;;;4.40;;
42846;SDS011;28495;49.916;14.536;2022-08-14T13:40:35;5.75;;;5.15;;
42846;SDS011;28495;49.916;14.536;2022-08-14T13:45:59;5.88;;;4.43;;
42846;SDS011;28495;49.916;14.536;2022-08-14T13:51:22;5.85;;;4.90;;
42846;SDS011;28495;49.916;14.536;2022-08-14T13:56:49;6.07;;;4.85;;
42846;SDS011;28495;49.916;14.536;2022-08-14T14:02:10;6.60;;;4.63;;
42846;SDS011;28495;49.916;14.536;2022-08-14T14:07:51;6.55;;;5.53;;
42846;SDS011;28495;49.916;14.536;2022-08-14T14:13:14;8.18;;;5.25;;
42846;SDS011;28495;49.916;14.536;2022-08-14T14:18:37;9.75;;;4.70;;
42846;SDS011;28495;49.916;14.536;2022-08-14T14:24:01;4.68;;;4.00;;
42846;SDS011;28495;49.916;14.536;2022-08-14T14:29:24;5.32;;;4.30;;
42846;SDS011;28495;49.916;14.536;2022-08-14T14:34:47;5.95;;;4.55;;
42846;SDS011;28495;49.916;14.536;2022-08-14T14:40:13;6.20;;;5.07;;
42846;SDS011;28495;49.916;14.536;2022-08-14T14:45:57;5.68;;;4.40;;
42846;SDS011;28495;49.916;14.536;2022-08-14T14:51:19;5.25;;;4.43;;
42846;SDS011;28495;49.916;14.536;2022-08-14T14:56:41;4.88;;;4.38;;
42846;SDS011;28495;49.916;14.536;2022-08-14T15:02:13;5.40;;;4.53;;
42846;SDS011;28495;49.916;14.536;2022-08-14T15:07:50;5.50;;;4.03;;
42846;SDS011;28495;49.916;14.536;2022-08-14T15:13:12;7.28;;;5.15;;
42846;SDS011;28495;49.916;14.536;2022-08-14T15:18:32;5.68;;;5.13;;
42846;SDS011;28495;49.916;14.536;2022-08-14T15:23:59;6.22;;;4.63;;
42846;SDS011;28495;49.916;14.536;2022-08-14T15:29:20;4.13;;;3.70;;
42846;SDS011;28495;49.916;14.536;2022-08-14T15:34:44;5.75;;;4.72;;
42846;SDS011;28495;49.916;14.536;2022-08-14T15:40:11;4.75;;;4.07;;
42846;SDS011;28495;49.916;14.536;2022-08-14T15:45:41;6.10;;;4.65;;
42846;SDS011;28495;49.916;14.536;2022-08-14T15:51:02;8.38;;;5.40;;
42846;SDS011;28495;49.916;14.536;2022-08-14T15:56:23;12.52;;;5.07;;
42846;SDS011;28495;49.916;14.536;2022-08-14T16:02:02;5.97;;;5.30;;
42846;SDS011;28495;49.916;14.536;2022-08-14T16:07:23;5.80;;;4.75;;
42846;SDS011;28495;49.916;14.536;2022-08-14T16:12:47;5.85;;;4.57;;
42846;SDS011;28495;49.916;14.536;2022-08-14T16:18:12;6.40;;;5.22;;
42846;SDS011;28495;49.916;14.536;2022-08-14T16:23:38;6.90;;;4.80;;
42846;SDS011;28495;49.916;14.536;2022-08-14T16:29:04;10.43;;;5.43;;
42846;SDS011;28495;49.916;14.536;2022-08-14T16:34:27;6.82;;;5.07;;
42846;SDS011;28495;49.916;14.536;2022-08-14T16:40:07;6.63;;;4.80;;
42846;SDS011;28495;49.916;14.536;2022-08-14T16:51:03;5.30;;;4.63;;
42846;SDS011;28495;49.916;14.536;2022-08-14T16:56:27;6.55;;;4.35;;
42846;SDS011;28495;49.916;14.536;2022-08-14T17:01:57;5.65;;;4.80;;
42846;SDS011;28495;49.916;14.536;2022-08-14T17:12:46;7.03;;;4.47;;
42846;SDS011;28495;49.916;14.536;2022-08-14T17:18:09;7.28;;;4.97;;
42846;SDS011;28495;49.916;14.536;2022-08-14T17:23:42;6.80;;;5.18;;
42846;SDS011;28495;49.916;14.536;2022-08-14T17:40:15;6.35;;;5.35;;
42846;SDS011;28495;49.916;14.536;2022-08-14T17:51:02;6.40;;;5.13;;
42846;SDS011;28495;49.916;14.536;2022-08-14T17:56:24;9.90;;;6.43;;
42846;SDS011;28495;49.916;14.536;2022-08-14T18:01:50;6.85;;;5.38;;
42846;SDS011;28495;49.916;14.536;2022-08-14T18:07:14;24.17;;;14.05;;
42846;SDS011;28495;49.916;14.536;2022-08-14T18:12:58;18.42;;;12.55;;
42846;SDS011;28495;49.916;14.536;2022-08-14T18:18:21;25.95;;;15.48;;
42846;SDS011;28495;49.916;14.536;2022-08-14T18:23:42;7.70;;;5.50;;
42846;SDS011;28495;49.916;14.536;2022-08-14T18:29:02;6.10;;;5.03;;
42846;SDS011;28495;49.916;14.536;2022-08-14T18:34:35;7.90;;;5.03;;
42846;SDS011;28495;49.916;14.536;2022-08-14T18:45:37;7.85;;;4.90;;
42846;SDS011;28495;49.916;14.536;2022-08-14T18:51:23;9.02;;;4.80;;
42846;SDS011;28495;49.916;14.536;2022-08-14T18:57:05;7.65;;;4.95;;
42846;SDS011;28495;49.916;14.536;2022-08-14T19:02:39;5.93;;;4.60;;
42846;SDS011;28495;49.916;14.536;2022-08-14T19:13:47;5.47;;;4.50;;
42846;SDS011;28495;49.916;14.536;2022-08-14T19:19:11;5.50;;;4.93;;
42846;SDS011;28495;49.916;14.536;2022-08-14T19:41:29;7.00;;;4.72;;
42846;SDS011;28495;49.916;14.536;2022-08-14T19:46:53;9.38;;;5.00;;
42846;SDS011;28495;49.916;14.536;2022-08-14T19:52:25;6.18;;;4.40;;
42846;SDS011;28495;49.916;14.536;2022-08-14T19:57:51;4.28;;;3.88;;
42846;SDS011;28495;49.916;14.536;2022-08-14T20:03:18;7.43;;;5.00;;
42846;SDS011;28495;49.916;14.536;2022-08-14T20:08:43;7.80;;;5.55;;
42846;SDS011;28495;49.916;14.536;2022-08-14T20:14:26;5.72;;;4.70;;
42846;SDS011;28495;49.916;14.536;2022-08-14T20:19:50;5.53;;;4.30;;
42846;SDS011;28495;49.916;14.536;2022-08-14T20:25:19;5.47;;;4.97;;
42846;SDS011;28495;49.916;14.536;2022-08-14T20:30:42;7.80;;;5.05;;
42846;SDS011;28495;49.916;14.536;2022-08-14T20:36:09;6.75;;;4.90;;
42846;SDS011;28495;49.916;14.536;2022-08-14T20:41:45;8.43;;;5.05;;
42846;SDS011;28495;49.916;14.536;2022-08-14T20:47:13;5.72;;;4.57;;
42846;SDS011;28495;49.916;14.536;2022-08-14T20:52:36;5.70;;;4.63;;
42846;SDS011;28495;49.916;14.536;2022-08-14T20:58:00;7.32;;;4.85;;
42846;SDS011;28495;49.916;14.536;2022-08-14T21:03:55;6.07;;;4.47;;
42846;SDS011;28495;49.916;14.536;2022-08-14T21:09:18;5.75;;;4.80;;
42846;SDS011;28495;49.916;14.536;2022-08-14T21:15:03;6.88;;;5.22;;
42846;SDS011;28495;49.916;14.536;2022-08-14T21:20:33;9.27;;;5.30;;
42846;SDS011;28495;49.916;14.536;2022-08-14T21:26:04;7.15;;;5.18;;
42846;SDS011;28495;49.916;14.536;2022-08-14T21:31:27;6.07;;;5.47;;
42846;SDS011;28495;49.916;14.536;2022-08-14T21:36:50;6.15;;;5.13;;
42846;SDS011;28495;49.916;14.536;2022-08-14T21:42:12;6.45;;;5.75;;
42846;SDS011;28495;49.916;14.536;2022-08-14T21:47:36;7.50;;;5.60;;
42846;SDS011;28495;49.916;14.536;2022-08-14T21:53:02;6.35;;;5.10;;
42846;SDS011;28495;49.916;14.536;2022-08-14T21:58:25;7.07;;;5.30;;
42846;SDS011;28495;49.916;14.536;2022-08-14T22:04:08;8.32;;;5.75;;
42846;SDS011;28495;49.916;14.536;2022-08-14T22:09:49;6.85;;;5.55;;
42846;SDS011;28495;49.916;14.536;2022-08-14T22:15:15;9.18;;;6.03;;
42846;SDS011;28495;49.916;14.536;2022-08-14T22:20:38;10.35;;;5.78;;
42846;SDS011;28495;49.916;14.536;2022-08-14T22:26:00;8.48;;;5.90;;
42846;SDS011;28495;49.916;14.536;2022-08-14T22:31:22;7.43;;;5.78;;
42846;SDS011;28495;49.916;14.536;2022-08-14T22:36:54;6.78;;;5.43;;
42846;SDS011;28495;49.916;14.536;2022-08-14T22:42:16;9.18;;;5.40;;
42846;SDS011;28495;49.916;14.536;2022-08-14T22:47:42;6.75;;;5.40;;
42846;SDS011;28495;49.916;14.536;2022-08-14T22:53:04;7.32;;;6.07;;
42846;SDS011;28495;49.916;14.536;2022-08-14T22:58:26;6.05;;;5.15;;
42846;SDS011;28495;49.916;14.536;2022-08-14T23:03:53;6.80;;;5.43;;
42846;SDS011;28495;49.916;14.536;2022-08-14T23:09:14;7.57;;;5.05;;
42846;SDS011;28495;49.916;14.536;2022-08-14T23:14:57;8.15;;;6.03;;
42846;SDS011;28495;49.916;14.536;2022-08-14T23:20:20;6.97;;;5.47;;
42846;SDS011;28495;49.916;14.536;2022-08-14T23:25:42;8.55;;;6.13;;
42846;SDS011;28495;49.916;14.536;2022-08-14T23:31:21;7.80;;;5.72;;
42846;SDS011;28495;49.916;14.536;2022-08-14T23:36:55;7.22;;;5.63;;
42846;SDS011;28495;49.916;14.536;2022-08-14T23:42:16;8.68;;;5.93;;
42846;SDS011;28495;49.916;14.536;2022-08-14T23:47:37;7.22;;;5.80;;
42846;SDS011;28495;49.916;14.536;2022-08-14T23:53:22;10.38;;;6.50;;
42846;SDS011;28495;49.916;14.536;2022-08-14T23:59:05;7.80;;;6.90;;
